sensor_id;sensor_type;location;lat;lon;timestamp;P1;durP1;ratioP1;P2;durP2;ratioP2
71148;SDS011;59072;42.144;25.200;2024-03-22T00:00:00;15.05;;;9.52;;
71148;SDS011;59072;42.144;25.200;2024-03-22T00:02:26;15.18;;;8.93;;
71148;SDS011;59072;42.144;25.200;2024-03-22T00:04:51;14.95;;;9.45;;
71148;SDS011;59072;42.144;25.200;2024-03-22T00:07:16;14.68;;;9.40;;
71148;SDS011;59072;42.144;25.200;2024-03-22T00:09:42;14.18;;;9.05;;
71148;SDS011;59072;42.144;25.200;2024-03-22T00:12:07;14.93;;;10.35;;
71148;SDS011;59072;42.144;25.200;2024-03-22T00:14:33;17.13;;;9.60;;
71148;SDS011;59072;42.144;25.200;2024-03-22T00:16:58;16.98;;;9.57;;
71148;SDS011;59072;42.144;25.200;2024-03-22T00:19:23;17.92;;;9.95;;
71148;SDS011;59072;42.144;25.200;2024-03-22T00:21:49;16.75;;;9.82;;
71148;SDS011;59072;42.144;25.200;2024-03-22T00:24:14;19.45;;;10.07;;
71148;SDS011;59072;42.144;25.200;2024-03-22T00:26:40;18.88;;;11.23;;
71148;SDS011;59072;42.144;25.200;2024-03-22T00:29:05;16.60;;;9.77;;
71148;SDS011;59072;42.144;25.200;2024-03-22T00:31:31;15.27;;;8.70;;
71148;SDS011;59072;42.144;25.200;2024-03-22T00:33:56;13.05;;;8.05;;
71148;SDS011;59072;42.144;25.200;2024-03-22T00:36:22;15.65;;;9.80;;
71148;SDS011;59072;42.144;25.200;2024-03-22T00:38:47;18.98;;;11.10;;
71148;SDS011;59072;42.144;25.200;2024-03-22T00:41:13;17.77;;;10.13;;
71148;SDS011;59072;42.144;25.200;2024-03-22T00:43:38;16.85;;;9.98;;
71148;SDS011;59072;42.144;25.200;2024-03-22T00:46:04;13.85;;;9.07;;
71148;SDS011;59072;42.144;25.200;2024-03-22T00:48:29;12.55;;;8.10;;
71148;SDS011;59072;42.144;25.200;2024-03-22T00:50:55;14.65;;;9.00;;
71148;SDS011;59072;42.144;25.200;2024-03-22T00:53:20;12.10;;;8.05;;
71148;SDS011;59072;42.144;25.200;2024-03-22T00:55:46;12.80;;;8.60;;
71148;SDS011;59072;42.144;25.200;2024-03-22T00:58:16;15.07;;;9.23;;
71148;SDS011;59072;42.144;25.200;2024-03-22T01:00:43;14.52;;;9.00;;
71148;SDS011;59072;42.144;25.200;2024-03-22T01:03:09;13.80;;;8.70;;
71148;SDS011;59072;42.144;25.200;2024-03-22T01:05:35;14.02;;;8.85;;
71148;SDS011;59072;42.144;25.200;2024-03-22T01:08:01;15.77;;;9.40;;
71148;SDS011;59072;42.144;25.200;2024-03-22T01:10:26;14.88;;;9.68;;
71148;SDS011;59072;42.144;25.200;2024-03-22T01:12:52;15.75;;;9.80;;
71148;SDS011;59072;42.144;25.200;2024-03-22T01:15:17;14.77;;;9.80;;
71148;SDS011;59072;42.144;25.200;2024-03-22T01:17:43;16.10;;;10.02;;
71148;SDS011;59072;42.144;25.200;2024-03-22T01:20:08;14.50;;;9.32;;
71148;SDS011;59072;42.144;25.200;2024-03-22T01:22:34;16.98;;;9.95;;
71148;SDS011;59072;42.144;25.200;2024-03-22T01:25:00;13.85;;;9.27;;
71148;SDS011;59072;42.144;25.200;2024-03-22T01:27:25;15.57;;;8.93;;
71148;SDS011;59072;42.144;25.200;2024-03-22T01:29:51;14.48;;;9.07;;
71148;SDS011;59072;42.144;25.200;2024-03-22T01:32:16;12.77;;;7.85;;
71148;SDS011;59072;42.144;25.200;2024-03-22T01:34:41;11.50;;;7.72;;
71148;SDS011;59072;42.144;25.200;2024-03-22T01:37:07;13.05;;;7.60;;
71148;SDS011;59072;42.144;25.200;2024-03-22T01:39:32;12.35;;;7.55;;
71148;SDS011;59072;42.144;25.200;2024-03-22T01:41:58;11.27;;;7.55;;
71148;SDS011;59072;42.144;25.200;2024-03-22T01:44:31;14.10;;;8.07;;
71148;SDS011;59072;42.144;25.200;2024-03-22T01:46:57;12.93;;;7.53;;
71148;SDS011;59072;42.144;25.200;2024-03-22T01:49:24;13.07;;;8.13;;
71148;SDS011;59072;42.144;25.200;2024-03-22T01:51:50;12.75;;;8.57;;
71148;SDS011;59072;42.144;25.200;2024-03-22T01:54:16;12.95;;;8.15;;
71148;SDS011;59072;42.144;25.200;2024-03-22T01:56:42;14.13;;;8.65;;
71148;SDS011;59072;42.144;25.200;2024-03-22T01:59:08;13.32;;;8.50;;
71148;SDS011;59072;42.144;25.200;2024-03-22T02:01:34;14.90;;;8.35;;
71148;SDS011;59072;42.144;25.200;2024-03-22T02:04:00;13.70;;;7.88;;
71148;SDS011;59072;42.144;25.200;2024-03-22T02:06:26;13.55;;;7.82;;
71148;SDS011;59072;42.144;25.200;2024-03-22T02:08:51;14.07;;;8.30;;
71148;SDS011;59072;42.144;25.200;2024-03-22T02:11:17;15.75;;;9.52;;
71148;SDS011;59072;42.144;25.200;2024-03-22T02:13:43;13.85;;;9.32;;
71148;SDS011;59072;42.144;25.200;2024-03-22T02:16:09;13.90;;;8.85;;
71148;SDS011;59072;42.144;25.200;2024-03-22T02:18:35;16.58;;;9.55;;
71148;SDS011;59072;42.144;25.200;2024-03-22T02:21:00;14.70;;;9.18;;
71148;SDS011;59072;42.144;25.200;2024-03-22T02:23:38;15.48;;;8.80;;
71148;SDS011;59072;42.144;25.200;2024-03-22T02:26:05;15.00;;;8.40;;
71148;SDS011;59072;42.144;25.200;2024-03-22T02:28:32;12.82;;;8.40;;
71148;SDS011;59072;42.144;25.200;2024-03-22T02:30:58;12.07;;;8.00;;
71148;SDS011;59072;42.144;25.200;2024-03-22T02:33:24;13.27;;;8.45;;
71148;SDS011;59072;42.144;25.200;2024-03-22T02:35:50;14.52;;;9.02;;
71148;SDS011;59072;42.144;25.200;2024-03-22T02:38:16;15.90;;;9.43;;
71148;SDS011;59072;42.144;25.200;2024-03-22T02:40:42;13.32;;;7.88;;
71148;SDS011;59072;42.144;25.200;2024-03-22T02:43:08;13.88;;;8.48;;
71148;SDS011;59072;42.144;25.200;2024-03-22T02:45:34;15.57;;;9.05;;
71148;SDS011;59072;42.144;25.200;2024-03-22T02:47:59;15.43;;;9.10;;
71148;SDS011;59072;42.144;25.200;2024-03-22T02:50:25;14.02;;;8.32;;
71148;SDS011;59072;42.144;25.200;2024-03-22T02:52:50;12.70;;;8.23;;
71148;SDS011;59072;42.144;25.200;2024-03-22T02:55:16;14.20;;;9.82;;
71148;SDS011;59072;42.144;25.200;2024-03-22T02:57:41;15.57;;;9.40;;
71148;SDS011;59072;42.144;25.200;2024-03-22T03:00:07;15.55;;;7.97;;
71148;SDS011;59072;42.144;25.200;2024-03-22T03:02:33;14.75;;;8.40;;
71148;SDS011;59072;42.144;25.200;2024-03-22T03:04:58;14.35;;;9.00;;
71148;SDS011;59072;42.144;25.200;2024-03-22T03:07:24;15.18;;;8.52;;
71148;SDS011;59072;42.144;25.200;2024-03-22T03:09:50;11.98;;;7.63;;
71148;SDS011;59072;42.144;25.200;2024-03-22T03:12:15;11.77;;;7.38;;
71148;SDS011;59072;42.144;25.200;2024-03-22T03:14:41;13.98;;;8.93;;
71148;SDS011;59072;42.144;25.200;2024-03-22T03:17:07;13.77;;;8.77;;
71148;SDS011;59072;42.144;25.200;2024-03-22T03:19:32;14.50;;;8.73;;
71148;SDS011;59072;42.144;25.200;2024-03-22T03:21:57;15.20;;;9.00;;
71148;SDS011;59072;42.144;25.200;2024-03-22T03:24:23;15.13;;;9.27;;
71148;SDS011;59072;42.144;25.200;2024-03-22T03:26:48;18.85;;;9.45;;
71148;SDS011;59072;42.144;25.200;2024-03-22T03:29:14;13.23;;;9.25;;
71148;SDS011;59072;42.144;25.200;2024-03-22T03:31:39;19.85;;;11.32;;
71148;SDS011;59072;42.144;25.200;2024-03-22T03:34:05;21.10;;;11.95;;
71148;SDS011;59072;42.144;25.200;2024-03-22T03:36:30;26.63;;;15.07;;
71148;SDS011;59072;42.144;25.200;2024-03-22T03:38:56;24.70;;;14.80;;
71148;SDS011;59072;42.144;25.200;2024-03-22T03:41:21;23.55;;;14.18;;
71148;SDS011;59072;42.144;25.200;2024-03-22T03:43:47;25.52;;;14.55;;
71148;SDS011;59072;42.144;25.200;2024-03-22T03:46:12;27.90;;;15.15;;
71148;SDS011;59072;42.144;25.200;2024-03-22T03:48:38;31.42;;;16.20;;
71148;SDS011;59072;42.144;25.200;2024-03-22T03:51:03;27.42;;;15.77;;
71148;SDS011;59072;42.144;25.200;2024-03-22T03:53:29;26.77;;;14.27;;
71148;SDS011;59072;42.144;25.200;2024-03-22T03:55:55;27.33;;;15.18;;
71148;SDS011;59072;42.144;25.200;2024-03-22T03:58:20;85.32;;;41.35;;
71148;SDS011;59072;42.144;25.200;2024-03-22T04:00:46;34.63;;;19.15;;
71148;SDS011;59072;42.144;25.200;2024-03-22T04:03:11;24.30;;;15.73;;
71148;SDS011;59072;42.144;25.200;2024-03-22T04:05:37;24.33;;;14.55;;
71148;SDS011;59072;42.144;25.200;2024-03-22T04:08:02;26.20;;;15.55;;
71148;SDS011;59072;42.144;25.200;2024-03-22T04:10:28;25.35;;;15.52;;
71148;SDS011;59072;42.144;25.200;2024-03-22T04:12:53;32.50;;;21.20;;
71148;SDS011;59072;42.144;25.200;2024-03-22T04:15:19;28.48;;;20.38;;
71148;SDS011;59072;42.144;25.200;2024-03-22T04:17:44;27.45;;;18.52;;
71148;SDS011;59072;42.144;25.200;2024-03-22T04:20:10;30.08;;;19.25;;
71148;SDS011;59072;42.144;25.200;2024-03-22T04:22:36;31.35;;;19.02;;
71148;SDS011;59072;42.144;25.200;2024-03-22T04:25:02;36.42;;;23.67;;
71148;SDS011;59072;42.144;25.200;2024-03-22T04:27:27;37.80;;;25.75;;
71148;SDS011;59072;42.144;25.200;2024-03-22T04:29:53;42.55;;;26.52;;
71148;SDS011;59072;42.144;25.200;2024-03-22T04:32:18;31.73;;;19.73;;
71148;SDS011;59072;42.144;25.200;2024-03-22T04:34:44;31.67;;;19.42;;
71148;SDS011;59072;42.144;25.200;2024-03-22T04:37:10;29.17;;;18.92;;
71148;SDS011;59072;42.144;25.200;2024-03-22T04:39:37;28.55;;;17.83;;
71148;SDS011;59072;42.144;25.200;2024-03-22T04:42:02;53.30;;;25.58;;
71148;SDS011;59072;42.144;25.200;2024-03-22T04:44:28;48.35;;;25.80;;
71148;SDS011;59072;42.144;25.200;2024-03-22T04:46:54;37.30;;;24.42;;
71148;SDS011;59072;42.144;25.200;2024-03-22T04:49:19;32.42;;;20.42;;
71148;SDS011;59072;42.144;25.200;2024-03-22T04:51:45;30.48;;;18.90;;
71148;SDS011;59072;42.144;25.200;2024-03-22T04:54:10;30.10;;;17.67;;
71148;SDS011;59072;42.144;25.200;2024-03-22T04:56:36;25.10;;;15.38;;
71148;SDS011;59072;42.144;25.200;2024-03-22T04:59:01;22.83;;;15.40;;
71148;SDS011;59072;42.144;25.200;2024-03-22T05:01:26;23.80;;;16.10;;
71148;SDS011;59072;42.144;25.200;2024-03-22T05:03:52;25.38;;;14.65;;
71148;SDS011;59072;42.144;25.200;2024-03-22T05:06:17;22.73;;;15.10;;
71148;SDS011;59072;42.144;25.200;2024-03-22T05:08:43;23.95;;;14.07;;
71148;SDS011;59072;42.144;25.200;2024-03-22T05:11:09;24.05;;;16.00;;
71148;SDS011;59072;42.144;25.200;2024-03-22T05:13:34;23.02;;;13.68;;
71148;SDS011;59072;42.144;25.200;2024-03-22T05:16:00;22.55;;;14.32;;
71148;SDS011;59072;42.144;25.200;2024-03-22T05:18:25;22.42;;;14.50;;
71148;SDS011;59072;42.144;25.200;2024-03-22T05:20:50;26.30;;;14.45;;
71148;SDS011;59072;42.144;25.200;2024-03-22T05:23:16;22.15;;;14.07;;
71148;SDS011;59072;42.144;25.200;2024-03-22T05:25:43;26.00;;;17.77;;
71148;SDS011;59072;42.144;25.200;2024-03-22T05:28:08;24.70;;;15.25;;
71148;SDS011;59072;42.144;25.200;2024-03-22T05:30:34;24.80;;;14.57;;
71148;SDS011;59072;42.144;25.200;2024-03-22T05:32:59;22.73;;;13.45;;
71148;SDS011;59072;42.144;25.200;2024-03-22T05:35:25;24.70;;;14.43;;
71148;SDS011;59072;42.144;25.200;2024-03-22T05:37:52;23.48;;;14.77;;
71148;SDS011;59072;42.144;25.200;2024-03-22T05:40:17;21.08;;;12.48;;
71148;SDS011;59072;42.144;25.200;2024-03-22T05:42:43;22.52;;;13.23;;
71148;SDS011;59072;42.144;25.200;2024-03-22T05:45:08;26.98;;;16.52;;
71148;SDS011;59072;42.144;25.200;2024-03-22T05:47:34;26.48;;;15.57;;
71148;SDS011;59072;42.144;25.200;2024-03-22T05:50:00;24.20;;;15.43;;
71148;SDS011;59072;42.144;25.200;2024-03-22T05:52:26;23.48;;;14.75;;
71148;SDS011;59072;42.144;25.200;2024-03-22T05:54:51;29.00;;;14.43;;
71148;SDS011;59072;42.144;25.200;2024-03-22T05:57:17;22.80;;;13.85;;
71148;SDS011;59072;42.144;25.200;2024-03-22T05:59:42;21.70;;;13.27;;
71148;SDS011;59072;42.144;25.200;2024-03-22T06:02:07;22.08;;;13.70;;
71148;SDS011;59072;42.144;25.200;2024-03-22T06:04:33;24.48;;;13.90;;
71148;SDS011;59072;42.144;25.200;2024-03-22T06:06:59;26.23;;;15.45;;
71148;SDS011;59072;42.144;25.200;2024-03-22T06:09:26;21.13;;;12.85;;
71148;SDS011;59072;42.144;25.200;2024-03-22T06:12:11;21.02;;;13.90;;
71148;SDS011;59072;42.144;25.200;2024-03-22T06:14:40;21.00;;;13.52;;
71148;SDS011;59072;42.144;25.200;2024-03-22T06:17:06;21.13;;;13.57;;
71148;SDS011;59072;42.144;25.200;2024-03-22T06:19:31;23.23;;;14.25;;
71148;SDS011;59072;42.144;25.200;2024-03-22T06:21:57;24.27;;;14.10;;
71148;SDS011;59072;42.144;25.200;2024-03-22T06:24:22;22.05;;;13.90;;
71148;SDS011;59072;42.144;25.200;2024-03-22T06:26:48;23.05;;;14.93;;
71148;SDS011;59072;42.144;25.200;2024-03-22T06:29:14;22.75;;;14.23;;
71148;SDS011;59072;42.144;25.200;2024-03-22T06:31:41;23.98;;;14.18;;
71148;SDS011;59072;42.144;25.200;2024-03-22T06:34:07;20.75;;;13.57;;
71148;SDS011;59072;42.144;25.200;2024-03-22T06:36:32;22.98;;;15.32;;
71148;SDS011;59072;42.144;25.200;2024-03-22T06:38:58;21.77;;;14.77;;
71148;SDS011;59072;42.144;25.200;2024-03-22T06:41:29;26.92;;;15.57;;
71148;SDS011;59072;42.144;25.200;2024-03-22T06:43:55;27.83;;;16.73;;
71148;SDS011;59072;42.144;25.200;2024-03-22T06:46:20;24.90;;;15.15;;
71148;SDS011;59072;42.144;25.200;2024-03-22T06:48:45;22.38;;;14.30;;
71148;SDS011;59072;42.144;25.200;2024-03-22T06:51:11;22.48;;;15.10;;
71148;SDS011;59072;42.144;25.200;2024-03-22T06:53:37;21.73;;;14.95;;
71148;SDS011;59072;42.144;25.200;2024-03-22T06:56:03;20.42;;;13.10;;
71148;SDS011;59072;42.144;25.200;2024-03-22T06:58:29;22.48;;;13.90;;
71148;SDS011;59072;42.144;25.200;2024-03-22T07:00:54;18.55;;;12.27;;
71148;SDS011;59072;42.144;25.200;2024-03-22T07:03:19;23.17;;;14.70;;
71148;SDS011;59072;42.144;25.200;2024-03-22T07:05:46;22.38;;;14.85;;
71148;SDS011;59072;42.144;25.200;2024-03-22T07:08:12;23.52;;;14.95;;
71148;SDS011;59072;42.144;25.200;2024-03-22T07:10:38;19.40;;;13.27;;
71148;SDS011;59072;42.144;25.200;2024-03-22T07:13:04;23.35;;;14.77;;
71148;SDS011;59072;42.144;25.200;2024-03-22T07:15:30;24.50;;;14.52;;
71148;SDS011;59072;42.144;25.200;2024-03-22T07:17:57;20.95;;;14.10;;
71148;SDS011;59072;42.144;25.200;2024-03-22T07:20:23;22.27;;;13.63;;
71148;SDS011;59072;42.144;25.200;2024-03-22T07:22:48;22.88;;;15.63;;
71148;SDS011;59072;42.144;25.200;2024-03-22T07:25:14;21.15;;;14.05;;
71148;SDS011;59072;42.144;25.200;2024-03-22T07:27:39;20.02;;;13.57;;
71148;SDS011;59072;42.144;25.200;2024-03-22T07:30:05;20.00;;;13.07;;
71148;SDS011;59072;42.144;25.200;2024-03-22T07:32:30;23.30;;;13.95;;
71148;SDS011;59072;42.144;25.200;2024-03-22T07:34:56;19.52;;;12.52;;
71148;SDS011;59072;42.144;25.200;2024-03-22T07:37:22;21.58;;;13.75;;
71148;SDS011;59072;42.144;25.200;2024-03-22T07:39:48;20.83;;;12.43;;
71148;SDS011;59072;42.144;25.200;2024-03-22T07:42:14;17.70;;;10.18;;
71148;SDS011;59072;42.144;25.200;2024-03-22T07:44:39;15.65;;;10.52;;
71148;SDS011;59072;42.144;25.200;2024-03-22T07:47:05;14.95;;;8.88;;
71148;SDS011;59072;42.144;25.200;2024-03-22T07:49:30;11.93;;;6.57;;
71148;SDS011;59072;42.144;25.200;2024-03-22T07:51:56;9.68;;;6.13;;
71148;SDS011;59072;42.144;25.200;2024-03-22T07:54:22;10.32;;;6.20;;
71148;SDS011;59072;42.144;25.200;2024-03-22T07:56:47;11.32;;;6.18;;
71148;SDS011;59072;42.144;25.200;2024-03-22T07:59:13;10.57;;;6.90;;
71148;SDS011;59072;42.144;25.200;2024-03-22T08:01:38;10.82;;;6.50;;
71148;SDS011;59072;42.144;25.200;2024-03-22T08:04:03;10.18;;;6.35;;
71148;SDS011;59072;42.144;25.200;2024-03-22T08:06:29;11.13;;;7.03;;
71148;SDS011;59072;42.144;25.200;2024-03-22T08:08:54;9.63;;;6.10;;
71148;SDS011;59072;42.144;25.200;2024-03-22T08:11:20;8.18;;;5.13;;
71148;SDS011;59072;42.144;25.200;2024-03-22T08:13:45;10.13;;;6.00;;
71148;SDS011;59072;42.144;25.200;2024-03-22T08:16:11;8.63;;;4.97;;
71148;SDS011;59072;42.144;25.200;2024-03-22T08:18:37;8.45;;;5.30;;
71148;SDS011;59072;42.144;25.200;2024-03-22T08:21:02;7.65;;;3.90;;
71148;SDS011;59072;42.144;25.200;2024-03-22T08:23:28;7.13;;;4.28;;
71148;SDS011;59072;42.144;25.200;2024-03-22T08:25:53;8.32;;;5.03;;
71148;SDS011;59072;42.144;25.200;2024-03-22T08:28:19;5.60;;;3.08;;
71148;SDS011;59072;42.144;25.200;2024-03-22T08:30:44;5.47;;;3.17;;
71148;SDS011;59072;42.144;25.200;2024-03-22T08:33:10;6.40;;;3.28;;
71148;SDS011;59072;42.144;25.200;2024-03-22T08:35:39;6.65;;;4.13;;
71148;SDS011;59072;42.144;25.200;2024-03-22T08:38:05;6.80;;;3.40;;
71148;SDS011;59072;42.144;25.200;2024-03-22T08:40:35;7.28;;;3.30;;
71148;SDS011;59072;42.144;25.200;2024-03-22T08:43:03;5.35;;;3.20;;
71148;SDS011;59072;42.144;25.200;2024-03-22T08:45:30;5.53;;;3.15;;
71148;SDS011;59072;42.144;25.200;2024-03-22T08:47:55;4.88;;;2.92;;
71148;SDS011;59072;42.144;25.200;2024-03-22T08:50:20;6.32;;;3.63;;
71148;SDS011;59072;42.144;25.200;2024-03-22T08:52:46;6.20;;;2.97;;
71148;SDS011;59072;42.144;25.200;2024-03-22T08:55:11;6.13;;;3.17;;
71148;SDS011;59072;42.144;25.200;2024-03-22T08:57:38;5.05;;;2.70;;
71148;SDS011;59072;42.144;25.200;2024-03-22T09:00:03;7.75;;;3.17;;
71148;SDS011;59072;42.144;25.200;2024-03-22T09:02:29;4.93;;;2.65;;
71148;SDS011;59072;42.144;25.200;2024-03-22T09:04:55;4.47;;;2.42;;
71148;SDS011;59072;42.144;25.200;2024-03-22T09:07:20;3.70;;;2.35;;
71148;SDS011;59072;42.144;25.200;2024-03-22T09:09:46;4.32;;;2.00;;
71148;SDS011;59072;42.144;25.200;2024-03-22T09:12:11;4.28;;;2.50;;
71148;SDS011;59072;42.144;25.200;2024-03-22T09:14:37;5.88;;;2.38;;
71148;SDS011;59072;42.144;25.200;2024-03-22T09:17:02;7.38;;;2.60;;
71148;SDS011;59072;42.144;25.200;2024-03-22T09:19:27;3.80;;;1.83;;
71148;SDS011;59072;42.144;25.200;2024-03-22T09:21:53;6.03;;;2.20;;
71148;SDS011;59072;42.144;25.200;2024-03-22T09:24:18;3.85;;;2.10;;
71148;SDS011;59072;42.144;25.200;2024-03-22T09:26:44;5.20;;;2.30;;
71148;SDS011;59072;42.144;25.200;2024-03-22T09:29:09;5.50;;;2.67;;
71148;SDS011;59072;42.144;25.200;2024-03-22T09:31:34;4.32;;;2.13;;
71148;SDS011;59072;42.144;25.200;2024-03-22T09:34:00;4.97;;;2.70;;
71148;SDS011;59072;42.144;25.200;2024-03-22T09:36:26;4.63;;;2.50;;
71148;SDS011;59072;42.144;25.200;2024-03-22T09:38:53;6.00;;;2.95;;
71148;SDS011;59072;42.144;25.200;2024-03-22T09:41:21;4.75;;;2.67;;
71148;SDS011;59072;42.144;25.200;2024-03-22T09:43:51;5.93;;;3.15;;
71148;SDS011;59072;42.144;25.200;2024-03-22T09:46:17;4.45;;;2.85;;
71148;SDS011;59072;42.144;25.200;2024-03-22T09:48:46;5.20;;;2.92;;
71148;SDS011;59072;42.144;25.200;2024-03-22T09:51:13;6.43;;;2.60;;
71148;SDS011;59072;42.144;25.200;2024-03-22T09:53:42;4.78;;;2.58;;
71148;SDS011;59072;42.144;25.200;2024-03-22T09:56:09;5.57;;;2.95;;
71148;SDS011;59072;42.144;25.200;2024-03-22T09:58:38;4.90;;;2.42;;
71148;SDS011;59072;42.144;25.200;2024-03-22T10:01:04;5.03;;;2.53;;
71148;SDS011;59072;42.144;25.200;2024-03-22T10:03:30;4.03;;;2.50;;
71148;SDS011;59072;42.144;25.200;2024-03-22T10:05:55;4.38;;;2.65;;
71148;SDS011;59072;42.144;25.200;2024-03-22T10:08:21;5.30;;;2.20;;
71148;SDS011;59072;42.144;25.200;2024-03-22T10:10:46;4.72;;;1.90;;
71148;SDS011;59072;42.144;25.200;2024-03-22T10:13:12;4.25;;;1.95;;
71148;SDS011;59072;42.144;25.200;2024-03-22T10:15:37;4.22;;;2.30;;
71148;SDS011;59072;42.144;25.200;2024-03-22T10:18:03;3.95;;;2.20;;
71148;SDS011;59072;42.144;25.200;2024-03-22T10:20:29;4.05;;;2.40;;
71148;SDS011;59072;42.144;25.200;2024-03-22T10:22:55;4.57;;;2.40;;
71148;SDS011;59072;42.144;25.200;2024-03-22T10:25:23;5.10;;;2.60;;
71148;SDS011;59072;42.144;25.200;2024-03-22T10:27:48;3.97;;;2.15;;
71148;SDS011;59072;42.144;25.200;2024-03-22T10:30:15;3.28;;;2.28;;
71148;SDS011;59072;42.144;25.200;2024-03-22T10:32:44;10.40;;;5.95;;
71148;SDS011;59072;42.144;25.200;2024-03-22T10:35:13;5.30;;;2.42;;
71148;SDS011;59072;42.144;25.200;2024-03-22T10:37:39;3.67;;;2.20;;
71148;SDS011;59072;42.144;25.200;2024-03-22T10:40:05;5.68;;;2.30;;
71148;SDS011;59072;42.144;25.200;2024-03-22T10:42:38;3.90;;;2.00;;
71148;SDS011;59072;42.144;25.200;2024-03-22T10:45:13;5.72;;;2.42;;
71148;SDS011;59072;42.144;25.200;2024-03-22T10:47:38;4.95;;;2.30;;
71148;SDS011;59072;42.144;25.200;2024-03-22T10:52:37;4.55;;;2.60;;
71148;SDS011;59072;42.144;25.200;2024-03-22T10:55:12;4.85;;;2.63;;
71148;SDS011;59072;42.144;25.200;2024-03-22T10:57:55;4.78;;;2.50;;
71148;SDS011;59072;42.144;25.200;2024-03-22T11:00:28;5.28;;;2.50;;
71148;SDS011;59072;42.144;25.200;2024-03-22T11:02:54;4.78;;;2.40;;
71148;SDS011;59072;42.144;25.200;2024-03-22T11:05:20;5.38;;;2.33;;
71148;SDS011;59072;42.144;25.200;2024-03-22T11:07:46;4.40;;;2.10;;
71148;SDS011;59072;42.144;25.200;2024-03-22T11:10:12;4.30;;;2.38;;
71148;SDS011;59072;42.144;25.200;2024-03-22T11:12:38;4.25;;;2.40;;
71148;SDS011;59072;42.144;25.200;2024-03-22T11:15:04;9.15;;;4.85;;
71148;SDS011;59072;42.144;25.200;2024-03-22T11:17:30;4.65;;;2.30;;
71148;SDS011;59072;42.144;25.200;2024-03-22T11:19:56;4.80;;;2.53;;
71148;SDS011;59072;42.144;25.200;2024-03-22T11:22:21;3.75;;;2.10;;
71148;SDS011;59072;42.144;25.200;2024-03-22T11:24:46;4.15;;;2.10;;
71148;SDS011;59072;42.144;25.200;2024-03-22T11:27:12;3.65;;;2.17;;
71148;SDS011;59072;42.144;25.200;2024-03-22T11:29:37;3.75;;;2.40;;
71148;SDS011;59072;42.144;25.200;2024-03-22T11:32:09;5.53;;;2.40;;
71148;SDS011;59072;42.144;25.200;2024-03-22T11:34:36;4.93;;;2.33;;
71148;SDS011;59072;42.144;25.200;2024-03-22T11:37:03;3.35;;;1.98;;
71148;SDS011;59072;42.144;25.200;2024-03-22T11:39:31;4.25;;;2.28;;
71148;SDS011;59072;42.144;25.200;2024-03-22T11:41:57;4.05;;;1.67;;
71148;SDS011;59072;42.144;25.200;2024-03-22T11:44:23;3.00;;;1.98;;
71148;SDS011;59072;42.144;25.200;2024-03-22T11:46:51;4.82;;;2.47;;
71148;SDS011;59072;42.144;25.200;2024-03-22T11:49:17;3.92;;;2.10;;
71148;SDS011;59072;42.144;25.200;2024-03-22T11:51:44;3.45;;;2.10;;
71148;SDS011;59072;42.144;25.200;2024-03-22T11:54:10;3.40;;;2.00;;
71148;SDS011;59072;42.144;25.200;2024-03-22T11:56:35;3.60;;;1.98;;
71148;SDS011;59072;42.144;25.200;2024-03-22T11:59:01;4.68;;;2.55;;
71148;SDS011;59072;42.144;25.200;2024-03-22T12:01:28;3.63;;;2.00;;
71148;SDS011;59072;42.144;25.200;2024-03-22T12:03:54;4.53;;;2.15;;
71148;SDS011;59072;42.144;25.200;2024-03-22T12:06:20;8.10;;;5.10;;
71148;SDS011;59072;42.144;25.200;2024-03-22T12:08:46;10.25;;;6.22;;
71148;SDS011;59072;42.144;25.200;2024-03-22T12:11:11;6.13;;;4.13;;
71148;SDS011;59072;42.144;25.200;2024-03-22T12:13:38;5.32;;;3.35;;
71148;SDS011;59072;42.144;25.200;2024-03-22T12:16:03;9.75;;;6.93;;
71148;SDS011;59072;42.144;25.200;2024-03-22T12:18:30;6.05;;;3.10;;
71148;SDS011;59072;42.144;25.200;2024-03-22T12:20:55;4.28;;;2.58;;
71148;SDS011;59072;42.144;25.200;2024-03-22T12:23:21;4.28;;;2.40;;
71148;SDS011;59072;42.144;25.200;2024-03-22T12:25:46;4.53;;;2.30;;
71148;SDS011;59072;42.144;25.200;2024-03-22T12:28:12;3.63;;;2.25;;
71148;SDS011;59072;42.144;25.200;2024-03-22T12:30:38;4.60;;;2.38;;
71148;SDS011;59072;42.144;25.200;2024-03-22T12:33:03;3.90;;;2.45;;
71148;SDS011;59072;42.144;25.200;2024-03-22T12:35:30;5.93;;;2.40;;
71148;SDS011;59072;42.144;25.200;2024-03-22T12:37:57;4.07;;;2.60;;
71148;SDS011;59072;42.144;25.200;2024-03-22T12:40:23;4.68;;;2.90;;
71148;SDS011;59072;42.144;25.200;2024-03-22T12:42:48;6.00;;;2.80;;
71148;SDS011;59072;42.144;25.200;2024-03-22T12:45:14;4.70;;;2.70;;
71148;SDS011;59072;42.144;25.200;2024-03-22T12:47:39;4.47;;;2.63;;
71148;SDS011;59072;42.144;25.200;2024-03-22T12:50:05;4.65;;;2.58;;
71148;SDS011;59072;42.144;25.200;2024-03-22T12:52:30;3.53;;;2.25;;
71148;SDS011;59072;42.144;25.200;2024-03-22T12:54:56;5.13;;;2.25;;
71148;SDS011;59072;42.144;25.200;2024-03-22T12:57:22;7.28;;;2.67;;
71148;SDS011;59072;42.144;25.200;2024-03-22T12:59:47;5.28;;;2.80;;
71148;SDS011;59072;42.144;25.200;2024-03-22T13:02:12;4.85;;;2.80;;
71148;SDS011;59072;42.144;25.200;2024-03-22T13:04:38;5.63;;;2.60;;
71148;SDS011;59072;42.144;25.200;2024-03-22T13:07:03;3.58;;;2.42;;
71148;SDS011;59072;42.144;25.200;2024-03-22T13:09:29;4.43;;;2.70;;
71148;SDS011;59072;42.144;25.200;2024-03-22T13:11:54;10.38;;;7.13;;
71148;SDS011;59072;42.144;25.200;2024-03-22T13:14:19;4.13;;;2.67;;
71148;SDS011;59072;42.144;25.200;2024-03-22T13:16:46;4.88;;;2.80;;
71148;SDS011;59072;42.144;25.200;2024-03-22T13:19:12;4.60;;;3.17;;
71148;SDS011;59072;42.144;25.200;2024-03-22T13:21:38;6.20;;;2.75;;
71148;SDS011;59072;42.144;25.200;2024-03-22T13:24:04;4.63;;;2.75;;
71148;SDS011;59072;42.144;25.200;2024-03-22T13:26:29;4.75;;;2.33;;
71148;SDS011;59072;42.144;25.200;2024-03-22T13:28:55;4.15;;;2.55;;
71148;SDS011;59072;42.144;25.200;2024-03-22T13:31:21;4.10;;;2.90;;
71148;SDS011;59072;42.144;25.200;2024-03-22T13:33:46;3.95;;;2.60;;
71148;SDS011;59072;42.144;25.200;2024-03-22T13:36:12;4.70;;;2.85;;
71148;SDS011;59072;42.144;25.200;2024-03-22T13:38:38;5.13;;;2.47;;
71148;SDS011;59072;42.144;25.200;2024-03-22T13:41:03;4.75;;;2.70;;
71148;SDS011;59072;42.144;25.200;2024-03-22T13:43:30;4.82;;;2.80;;
71148;SDS011;59072;42.144;25.200;2024-03-22T13:45:56;5.10;;;2.70;;
71148;SDS011;59072;42.144;25.200;2024-03-22T13:48:22;3.53;;;2.25;;
71148;SDS011;59072;42.144;25.200;2024-03-22T13:50:49;5.60;;;2.90;;
71148;SDS011;59072;42.144;25.200;2024-03-22T13:53:21;5.30;;;2.97;;
71148;SDS011;59072;42.144;25.200;2024-03-22T13:55:48;3.78;;;2.35;;
71148;SDS011;59072;42.144;25.200;2024-03-22T13:58:14;4.47;;;2.70;;
71148;SDS011;59072;42.144;25.200;2024-03-22T14:00:39;4.45;;;2.60;;
71148;SDS011;59072;42.144;25.200;2024-03-22T14:03:05;4.18;;;2.42;;
71148;SDS011;59072;42.144;25.200;2024-03-22T14:05:30;5.28;;;2.65;;
71148;SDS011;59072;42.144;25.200;2024-03-22T14:07:56;5.20;;;2.60;;
71148;SDS011;59072;42.144;25.200;2024-03-22T14:10:22;4.60;;;2.70;;
71148;SDS011;59072;42.144;25.200;2024-03-22T14:12:50;4.38;;;2.67;;
71148;SDS011;59072;42.144;25.200;2024-03-22T14:15:15;3.50;;;2.60;;
71148;SDS011;59072;42.144;25.200;2024-03-22T14:17:41;4.45;;;2.72;;